createdAt,value
2022-11-03T00:01:13.535Z,99171.09
2022-11-03T00:03:40.364Z,99177.06
2022-11-03T00:06:07.588Z,99166.25
2022-11-03T00:08:42.083Z,99163.03
2022-11-03T00:11:13.518Z,99163.31
2022-11-03T00:13:43.687Z,99161.69
2022-11-03T00:16:13.513Z,99161.69
2022-11-03T00:18:40.327Z,99164.94
2022-11-03T00:21:10.458Z,99161.44
2022-11-03T00:23:43.223Z,99157.91
2022-11-03T00:26:27.543Z,99167.94
2022-11-03T00:29:00.965Z,99158.22
2022-11-03T00:31:33.812Z,99152.28
2022-11-03T00:34:02.220Z,99156.28
2022-11-03T00:36:33.538Z,99156.31
2022-11-03T00:39:00.537Z,99159.31
2022-11-03T00:41:27.943Z,99147.44
2022-11-03T00:43:55.391Z,99144.50
2022-11-03T00:46:24.096Z,99145.28
2022-11-03T00:48:50.986Z,99136.91
2022-11-03T00:51:29.960Z,99129.63
2022-11-03T00:53:58.862Z,99133.41
2022-11-03T00:56:38.741Z,99128.53
2022-11-03T00:59:07.747Z,99121.53
2022-11-03T01:01:46.720Z,99123.44
2022-11-03T01:04:35.887Z,99118.84
2022-11-03T01:07:06.015Z,99109.66
2022-11-03T01:09:38.835Z,99101.53
2022-11-03T01:12:14.848Z,99104.25
2022-11-03T01:14:46.124Z,99093.75
2022-11-03T01:17:20.435Z,99089.72
2022-11-03T01:19:47.786Z,99094.34
2022-11-03T01:22:16.466Z,99088.09
2022-11-03T01:24:44.566Z,99084.84
2022-11-03T01:27:15.918Z,99090.22
2022-11-03T01:29:43.450Z,99086.75
2022-11-03T01:32:11.349Z,99093.75
2022-11-03T01:34:39.092Z,99091.84
2022-11-03T01:37:07.282Z,99091.59
2022-11-03T01:39:34.122Z,99086.22
2022-11-03T01:42:01.262Z,99087.56
2022-11-03T01:44:45.211Z,99087.84
2022-11-03T01:47:15.071Z,99078.38
2022-11-03T01:49:51.732Z,99082.72
2022-11-03T01:52:25.878Z,99073.00
2022-11-03T01:55:00.756Z,99069.72
2022-11-03T01:57:57.549Z,99062.72
2022-11-03T02:00:24.339Z,99064.06
2022-11-03T02:02:51.761Z,99056.22
2022-11-03T02:05:22.516Z,99051.41
2022-11-03T02:08:18.649Z,99053.84
2022-11-03T02:10:51.248Z,99043.31
2022-11-03T02:13:27.914Z,99050.31
2022-11-03T02:15:59.447Z,99041.16
2022-11-03T02:18:34.281Z,99039.81
2022-11-03T02:21:23.530Z,99026.56
2022-11-03T02:24:10.435Z,99025.78
2022-11-03T02:26:37.705Z,99029.25
2022-11-03T02:29:04.654Z,99006.88
2022-11-03T02:31:42.480Z,99011.75
2022-11-03T02:34:23.488Z,99007.69
2022-11-03T02:37:01.888Z,99009.31
2022-11-03T02:39:44.270Z,98996.09
2022-11-03T02:42:14.083Z,98989.31
2022-11-03T02:44:44.740Z,98973.94
2022-11-03T02:47:14.900Z,98971.44
2022-11-03T02:49:50.937Z,98973.03
2022-11-03T02:52:44.768Z,98968.19
2022-11-03T02:55:30.909Z,98972.53
2022-11-03T02:58:40.768Z,98968.72
2022-11-03T03:01:29.075Z,98966.84
2022-11-03T03:04:06.088Z,98963.84
2022-11-03T03:07:07.285Z,98962.56
2022-11-03T03:10:06.026Z,98957.94
2022-11-03T03:12:38.443Z,98939.63
2022-11-03T03:15:08.759Z,98942.34
2022-11-03T03:18:07.489Z,98937.44
2022-11-03T03:20:54.883Z,98927.38
2022-11-03T03:23:31.266Z,98929.25
2022-11-03T03:26:28.180Z,98926.22
2022-11-03T03:29:06.068Z,98923.59
2022-11-03T03:31:38.161Z,98906.31
2022-11-03T03:34:23.869Z,98908.53
2022-11-03T03:36:57.749Z,98898.88
2022-11-03T03:39:32.293Z,98896.22
2022-11-03T03:42:03.061Z,98896.75
2022-11-03T03:44:32.560Z,98894.28
2022-11-03T03:47:06.690Z,98890.47
2022-11-03T03:49:33.471Z,98885.91
2022-11-03T03:52:01.321Z,98874.28
2022-11-03T03:54:28.064Z,98870.50
2022-11-03T03:57:16.067Z,98880.75
2022-11-03T03:59:45.844Z,98875.94
2022-11-03T04:02:13.260Z,98872.69
2022-11-03T04:04:40.281Z,98868.91
2022-11-03T04:07:27.014Z,98869.72
2022-11-03T04:09:53.987Z,98869.47
2022-11-03T04:12:39.551Z,98868.94
2022-11-03T04:15:25.876Z,98858.16
2022-11-03T04:18:11.238Z,98861.41
2022-11-03T04:20:56.439Z,98857.59
2022-11-03T04:23:23.243Z,98850.59
2022-11-03T04:25:57.596Z,98846.03
2022-11-03T04:28:27.216Z,98845.16
2022-11-03T04:30:59.488Z,98843.31
2022-11-03T04:33:26.891Z,98834.69
2022-11-03T04:35:58.644Z,98832.50
2022-11-03T04:38:27.823Z,98842.75
2022-11-03T04:40:58.151Z,98839.22
2022-11-03T04:43:37.208Z,98835.25
2022-11-03T04:46:05.736Z,98834.75
2022-11-03T04:48:34.128Z,98829.06
2022-11-03T04:51:13.139Z,98822.34
2022-11-03T04:53:50.886Z,98820.69
2022-11-03T04:56:23.218Z,98823.06
2022-11-03T04:58:51.487Z,98825.53
2022-11-03T05:01:24.354Z,98823.06
2022-11-03T05:03:54.506Z,98820.66
2022-11-03T05:06:27.780Z,98808.84
2022-11-03T05:09:12.686Z,98806.69
2022-11-03T05:11:43.984Z,98793.19
2022-11-03T05:14:25.843Z,98789.72
2022-11-03T05:16:55.468Z,98788.34
2022-11-03T05:19:34.988Z,98785.88
2022-11-03T05:22:04.873Z,98776.19
2022-11-03T05:24:33.386Z,98777.53
2022-11-03T05:27:00.541Z,98765.69
2022-11-03T05:29:39.352Z,98760.03
2022-11-03T05:32:14.857Z,98763.28
2022-11-03T05:34:44.353Z,98760.53
2022-11-03T05:37:32.786Z,98756.19
2022-11-03T05:40:20.971Z,98752.97
2022-11-03T05:42:57.062Z,98752.09
2022-11-03T05:45:33.424Z,98743.72
2022-11-03T05:48:06.450Z,98748.31
2022-11-03T05:50:36.611Z,98740.50
2022-11-03T05:53:30.582Z,98739.66
2022-11-03T05:56:02.425Z,98739.81
2022-11-03T05:58:38.783Z,98730.06
2022-11-03T06:01:28.148Z,98720.13
2022-11-03T06:03:56.326Z,98714.59
2022-11-03T06:06:38.666Z,98708.94
2022-11-03T06:09:16.649Z,98701.34
2022-11-03T06:11:45.317Z,98709.38
2022-11-03T06:14:25.243Z,98706.13
2022-11-03T06:17:01.917Z,98707.22
2022-11-03T06:19:38.692Z,98718.53
2022-11-03T06:22:37.938Z,98715.50
2022-11-03T06:25:26.532Z,98715.75
2022-11-03T06:27:57.412Z,98716.84
2022-11-03T06:30:39.048Z,98715.19
2022-11-03T06:33:28.387Z,98713.38
2022-11-03T06:36:08.921Z,98708.78
2022-11-03T06:38:35.791Z,98708.81
2022-11-03T06:41:02.550Z,98701.81
2022-11-03T06:43:42.450Z,98694.47
2022-11-03T06:46:23.888Z,98694.94
2022-11-03T06:48:54.908Z,98686.72
2022-11-03T06:51:28.932Z,98683.97
2022-11-03T06:54:00.136Z,98693.69
2022-11-03T06:56:35.289Z,98673.16
2022-11-03T06:59:02.694Z,98675.88
2022-11-03T07:01:33.561Z,98678.00
2022-11-03T07:04:13.113Z,98666.59
2022-11-03T07:06:40.975Z,98664.09
2022-11-03T07:09:16.506Z,98664.63
2022-11-03T07:11:53.954Z,98664.72
2022-11-03T07:14:33.824Z,98663.63
2022-11-03T07:17:06.765Z,98657.66
2022-11-03T07:19:38.117Z,98661.38
2022-11-03T07:22:16.643Z,98660.00
2022-11-03T07:24:48.658Z,98659.63
2022-11-03T07:27:29.500Z,98656.19
2022-11-03T07:30:15.837Z,98651.72
2022-11-03T07:32:42.618Z,98651.13
2022-11-03T07:35:18.310Z,98643.44
2022-11-03T07:37:47.728Z,98642.59
2022-11-03T07:40:19.355Z,98642.81
2022-11-03T07:42:46.251Z,98645.06
2022-11-03T07:45:44.042Z,98639.22
2022-11-03T07:48:36.381Z,98635.34
2022-11-03T07:51:33.078Z,98619.91
2022-11-03T07:54:09.108Z,98630.75
2022-11-03T07:56:45.044Z,98632.00
2022-11-03T07:59:17.769Z,98622.97
2022-11-03T08:01:50.647Z,98602.72
2022-11-03T08:04:21.287Z,98585.38
2022-11-03T08:06:48.512Z,98587.91
2022-11-03T08:09:16.043Z,98582.00
2022-11-03T08:11:42.895Z,98582.13
2022-11-03T08:14:10.465Z,98579.00
2022-11-03T08:16:38.334Z,98579.75
2022-11-03T08:19:05.970Z,98570.09
2022-11-03T08:21:32.857Z,98566.72
2022-11-03T08:23:59.940Z,98566.78
2022-11-03T08:26:26.935Z,98552.25
2022-11-03T08:28:54.170Z,98556.66
2022-11-03T08:31:21.020Z,98546.13
2022-11-03T08:33:47.778Z,98553.81
2022-11-03T08:36:14.733Z,98543.28
2022-11-03T08:38:41.706Z,98546.88
2022-11-03T08:41:08.789Z,98538.97
2022-11-03T08:43:35.589Z,98543.88
2022-11-03T08:46:08.174Z,98545.66
2022-11-03T08:48:36.883Z,98542.25
2022-11-03T08:51:03.953Z,98539.19
2022-11-03T08:53:30.914Z,98540.53
2022-11-03T08:55:57.751Z,98533.69
2022-11-03T08:58:24.759Z,98533.25
2022-11-03T09:00:51.612Z,98530.09
2022-11-03T09:03:18.570Z,98521.41
2022-11-03T09:05:45.466Z,98525.03
2022-11-03T09:10:59.742Z,98510.78
2022-11-03T09:13:26.550Z,98518.34
2022-11-03T09:15:53.360Z,98520.00
2022-11-03T09:18:20.227Z,98513.47
2022-11-03T09:20:46.995Z,98506.63
2022-11-03T09:23:13.813Z,98514.34
2022-11-03T09:25:40.602Z,98512.94
2022-11-03T09:28:07.891Z,98512.28
2022-11-03T09:30:34.887Z,98508.44
2022-11-03T09:33:01.652Z,98500.75
2022-11-03T09:35:28.469Z,98490.19
2022-11-03T09:37:55.254Z,98479.16
2022-11-03T09:40:22.308Z,98478.81
2022-11-03T09:42:49.372Z,98476.09
2022-11-03T09:45:16.482Z,98469.03
2022-11-03T09:47:47.017Z,98467.94
2022-11-03T09:50:19.384Z,98471.94
2022-11-03T09:52:51.570Z,98478.81
2022-11-03T09:55:25.536Z,98466.81
2022-11-03T09:58:02.009Z,98459.94
2022-11-03T10:00:29.195Z,98450.16
2022-11-03T10:02:56.557Z,98448.88
2022-11-03T10:05:27.270Z,98452.88
2022-11-03T10:08:01.203Z,98444.84
2022-11-03T10:10:28.998Z,98437.16
2022-11-03T10:12:56.609Z,98429.78
2022-11-03T10:15:25.866Z,98434.38
2022-11-03T10:17:54.321Z,98435.97
2022-11-03T10:20:23.317Z,98428.09
2022-11-03T10:22:55.350Z,98416.19
2022-11-03T10:25:40.609Z,98416.59
2022-11-03T10:28:27.180Z,98411.59
2022-11-03T10:31:11.098Z,98407.28
2022-11-03T10:33:53.783Z,98398.94
2022-11-03T10:36:23.274Z,98402.28
2022-11-03T10:38:50.622Z,98399.56
2022-11-03T10:41:24.110Z,98397.19
2022-11-03T10:44:10.660Z,98393.66
2022-11-03T10:46:54.988Z,98387.75
2022-11-03T10:49:43.732Z,98385.75
2022-11-03T10:52:22.532Z,98382.41
2022-11-03T10:54:53.648Z,98364.19
2022-11-03T10:57:22.689Z,98355.75
2022-11-03T10:59:53.708Z,98341.19
2022-11-03T11:02:26.233Z,98341.84
2022-11-03T11:05:01.324Z,98335.63
2022-11-03T11:07:40.226Z,98328.81
2022-11-03T11:10:19.495Z,98328.72
2022-11-03T11:13:21.760Z,98324.88
2022-11-03T11:15:54.411Z,98315.22
2022-11-03T11:18:30.502Z,98309.22
2022-11-03T11:21:20.209Z,98315.25
2022-11-03T11:23:49.030Z,98315.72
2022-11-03T11:26:26.288Z,98297.41
2022-11-03T11:29:08.708Z,98295.13
2022-11-03T11:31:36.464Z,98294.69
2022-11-03T11:34:14.207Z,98291.38
2022-11-03T11:36:45.678Z,98290.69
2022-11-03T11:39:24.783Z,98284.53
2022-11-03T11:42:14.549Z,98268.41
2022-11-03T11:44:47.938Z,98266.00
2022-11-03T11:47:45.864Z,98254.31
2022-11-03T11:50:16.430Z,98254.63
2022-11-03T11:53:02.456Z,98250.50
2022-11-03T11:55:56.711Z,98253.13
2022-11-03T11:58:47.393Z,98255.84
2022-11-03T12:01:37.664Z,98246.19
2022-11-03T12:04:28.976Z,98234.81
2022-11-03T12:06:56.417Z,98232.78
2022-11-03T12:09:28.508Z,98223.66
2022-11-03T12:12:00.711Z,98217.75
2022-11-03T12:14:31.882Z,98219.09
2022-11-03T12:17:19.542Z,98205.38
2022-11-03T12:19:54.750Z,98203.41
2022-11-03T12:22:24.546Z,98195.59
2022-11-03T12:25:01.571Z,98195.25
2022-11-03T12:27:34.584Z,98184.78
2022-11-03T12:30:06.214Z,98184.13
2022-11-03T12:32:34.951Z,98178.00
2022-11-03T12:35:04.895Z,98178.13
2022-11-03T12:37:31.732Z,98170.41
2022-11-03T12:39:58.563Z,98168.47
2022-11-03T12:42:25.727Z,98159.16
2022-11-03T12:44:53.074Z,98164.59
2022-11-03T12:47:20.987Z,98159.81
2022-11-03T12:49:48.198Z,98144.72
2022-11-03T12:52:15.697Z,98147.09
2022-11-03T12:54:42.569Z,98138.91
2022-11-03T12:57:09.801Z,98140.72
2022-11-03T12:59:37.002Z,98130.97
2022-11-03T13:02:04.306Z,98124.72
2022-11-03T13:04:31.463Z,98126.63
2022-11-03T13:06:58.341Z,98121.53
2022-11-03T13:09:25.119Z,98112.09
2022-11-03T13:12:10.366Z,98107.91
2022-11-03T13:14:37.232Z,98102.56
2022-11-03T13:17:04.465Z,98090.75
2022-11-03T13:19:31.308Z,98087.78
2022-11-03T13:22:01.147Z,98086.19
2022-11-03T13:24:27.923Z,98082.31
2022-11-03T13:26:54.789Z,98076.41
2022-11-03T13:29:21.652Z,98055.06
2022-11-03T13:31:48.476Z,98055.88
2022-11-03T13:34:15.250Z,98049.16
2022-11-03T13:36:42.147Z,98038.25
2022-11-03T13:39:08.921Z,98029.41
2022-11-03T13:41:35.677Z,98014.63
2022-11-03T13:44:02.607Z,98012.81
2022-11-03T13:46:29.653Z,98011.78
2022-11-03T13:51:46.537Z,97995.19
2022-11-03T13:59:47.313Z,97989.16
2022-11-03T14:05:01.429Z,97985.09
2022-11-03T14:07:28.818Z,97975.78
2022-11-03T14:09:56.952Z,97977.72
2022-11-03T14:12:31.938Z,97964.88
2022-11-03T14:15:10.882Z,97962.94
2022-11-03T14:17:40.350Z,97962.13
2022-11-03T14:20:11.987Z,97957.50
2022-11-03T14:22:40.221Z,97943.50
2022-11-03T14:25:08.376Z,97941.22
2022-11-03T14:27:35.519Z,97923.72
2022-11-03T14:30:04.196Z,97925.31
2022-11-03T14:32:31.059Z,97921.00
2022-11-03T14:34:57.995Z,97920.22
2022-11-03T14:37:25.413Z,97921.38
2022-11-03T14:39:52.456Z,97909.66
2022-11-03T14:42:19.349Z,97904.56
2022-11-03T14:44:47.849Z,97901.81
2022-11-03T14:47:21.630Z,97887.38
2022-11-03T14:49:49.348Z,97897.50
2022-11-03T14:52:17.626Z,97897.97
2022-11-03T14:54:44.603Z,97893.28
2022-11-03T14:57:11.654Z,97882.84
2022-11-03T14:59:38.537Z,97893.84
2022-11-03T15:02:06.397Z,97883.41
2022-11-03T15:04:33.609Z,97878.63
2022-11-03T15:07:01.906Z,97871.16
2022-11-03T15:09:28.769Z,97863.31
2022-11-03T15:11:55.871Z,97846.03
2022-11-03T15:14:22.937Z,97855.38
2022-11-03T15:16:50.055Z,97841.72
2022-11-03T15:19:16.846Z,97841.28
2022-11-03T15:21:44.042Z,97839.69
2022-11-03T15:26:57.707Z,97831.97
2022-11-03T15:29:24.560Z,97827.31
2022-11-03T15:31:51.683Z,97839.38
2022-11-03T15:34:18.746Z,97822.56
2022-11-03T15:36:45.605Z,97822.56
2022-11-03T15:39:13.228Z,97807.44
2022-11-03T15:41:40.455Z,97803.47
2022-11-03T15:44:07.359Z,97793.81
2022-11-03T15:46:35.828Z,97781.31
2022-11-03T15:49:03.763Z,97762.47
2022-11-03T15:51:30.730Z,97773.72
2022-11-03T15:53:59.178Z,97774.19
2022-11-03T15:56:27.429Z,97764.06
2022-11-03T15:58:54.459Z,97750.44
2022-11-03T16:01:21.573Z,97752.47
2022-11-03T16:03:48.598Z,97744.28
2022-11-03T16:06:16.020Z,97746.44
2022-11-03T16:08:44.002Z,97730.78
2022-11-03T16:11:11.031Z,97730.78
2022-11-03T16:13:38.127Z,97726.59
2022-11-03T16:16:06.122Z,97726.22
2022-11-03T16:18:33.188Z,97718.84
2022-11-03T16:21:00.092Z,97713.84
2022-11-03T16:23:26.901Z,97710.00
2022-11-03T16:25:54.053Z,97710.94
2022-11-03T16:28:20.908Z,97720.84
2022-11-03T16:30:52.971Z,97718.34
2022-11-03T16:33:21.079Z,97726.00
2022-11-03T16:35:48.436Z,97739.88
2022-11-03T16:38:15.408Z,97735.81
2022-11-03T16:40:43.383Z,97737.41
2022-11-03T16:43:11.337Z,97749.06
2022-11-03T16:45:38.574Z,97742.41
2022-11-03T16:48:06.918Z,97743.53
2022-11-03T16:50:34.688Z,97738.88
2022-11-03T16:53:01.767Z,97736.50
2022-11-03T16:55:28.881Z,97741.94
2022-11-03T16:57:55.712Z,97738.78
2022-11-03T17:00:24.003Z,97746.50
2022-11-03T17:02:51.023Z,97744.09
2022-11-03T17:05:20.823Z,97755.00
2022-11-03T17:07:53.562Z,97747.19
2022-11-03T17:10:21.649Z,97757.28
2022-11-03T17:12:49.336Z,97751.25
2022-11-03T17:15:19.214Z,97744.47
2022-11-03T17:17:46.392Z,97754.00
2022-11-03T17:20:13.807Z,97741.03
2022-11-03T17:22:40.783Z,97741.72
2022-11-03T17:25:10.627Z,97726.88
2022-11-03T17:27:40.536Z,97723.72
2022-11-03T17:30:15.128Z,97716.03
2022-11-03T17:32:43.509Z,97699.59
2022-11-03T17:35:25.452Z,97688.38
2022-11-03T17:37:53.318Z,97692.34
2022-11-03T17:40:26.070Z,97690.88
2022-11-03T17:42:53.816Z,97675.31
2022-11-03T17:45:24.491Z,97669.88
2022-11-03T17:47:52.173Z,97673.41
2022-11-03T17:50:24.351Z,97679.88
2022-11-03T17:52:54.282Z,97677.81
2022-11-03T17:55:30.386Z,97680.31
2022-11-03T17:58:04.856Z,97676.94
2022-11-03T18:00:31.803Z,97673.88
2022-11-03T18:02:58.707Z,97678.28
2022-11-03T18:05:31.315Z,97670.56
2022-11-03T18:08:01.512Z,97664.34
2022-11-03T18:10:34.398Z,97656.50
2022-11-03T18:13:17.475Z,97643.25
2022-11-03T18:16:27.182Z,97631.25
2022-11-03T18:18:54.067Z,97631.56
2022-11-03T18:21:23.874Z,97642.38
2022-11-03T18:23:50.770Z,97652.44
2022-11-03T18:26:21.768Z,97667.84
2022-11-03T18:28:50.257Z,97682.06
2022-11-03T18:31:38.751Z,97656.63
2022-11-03T18:34:14.653Z,97636.00
2022-11-03T18:36:42.649Z,97665.59
2022-11-03T18:39:16.818Z,97673.31
2022-11-03T18:41:43.969Z,97654.50
2022-11-03T18:44:23.960Z,97658.34
2022-11-03T18:46:52.627Z,97652.66
2022-11-03T18:49:20.084Z,97646.22
2022-11-03T18:52:01.022Z,97644.28
2022-11-03T18:54:35.315Z,97641.56
2022-11-03T18:57:03.419Z,97640.22
2022-11-03T18:59:38.396Z,97634.09
2022-11-03T19:02:25.900Z,97626.03
2022-11-03T19:04:52.790Z,97631.03
2022-11-03T19:07:31.114Z,97636.69
2022-11-03T19:09:59.235Z,97625.38
2022-11-03T19:12:26.072Z,97630.34
2022-11-03T19:14:53.166Z,97632.84
2022-11-03T19:17:23.982Z,97636.38
2022-11-03T19:19:53.230Z,97630.47
2022-11-03T19:22:22.731Z,97622.53
2022-11-03T19:24:49.530Z,97618.13
2022-11-03T19:27:22.398Z,97610.63
2022-11-03T19:29:49.759Z,97596.59
2022-11-03T19:32:25.148Z,97596.72
2022-11-03T19:35:07.814Z,97592.50
2022-11-03T19:37:36.137Z,97585.50
2022-11-03T19:40:08.611Z,97573.72
2022-11-03T19:42:36.823Z,97564.88
2022-11-03T19:45:17.125Z,97564.19
2022-11-03T19:48:23.807Z,97565.91
2022-11-03T19:50:42.410Z,97560.53
2022-11-03T19:53:23.326Z,97557.50
2022-11-03T19:55:50.624Z,97549.34
2022-11-03T19:58:23.211Z,97547.41
2022-11-03T20:00:53.387Z,97555.34
2022-11-03T20:03:22.042Z,97551.66
2022-11-03T20:05:53.483Z,97535.66
2022-11-03T20:08:24.339Z,97535.34
2022-11-03T20:10:52.048Z,97521.94
2022-11-03T20:13:24.132Z,97521.81
2022-11-03T20:15:57.332Z,97518.34
2022-11-03T20:18:27.380Z,97524.78
2022-11-03T20:20:54.496Z,97520.69
2022-11-03T20:23:34.452Z,97530.75
2022-11-03T20:26:02.601Z,97526.22
2022-11-03T20:28:32.263Z,97525.53
2022-11-03T20:31:01.016Z,97529.53
2022-11-03T20:33:28.143Z,97526.03
2022-11-03T20:35:55.843Z,97531.91
2022-11-03T20:38:26.575Z,97535.09
2022-11-03T20:40:58.939Z,97537.16
2022-11-03T20:43:29.055Z,97531.72
2022-11-03T20:45:57.106Z,97515.63
2022-11-03T20:48:25.181Z,97508.69
2022-11-03T20:50:53.809Z,97508.13
2022-11-03T20:53:24.474Z,97507.44
2022-11-03T20:55:53.028Z,97511.75
2022-11-03T20:58:20.050Z,97512.13
2022-11-03T21:00:48.819Z,97520.16
2022-11-03T21:03:44.845Z,97514.25
2022-11-03T21:06:17.647Z,97530.88
2022-11-03T21:08:46.776Z,97552.75
2022-11-03T21:11:23.508Z,97556.47
2022-11-03T21:14:02.120Z,97573.34
2022-11-03T21:16:48.925Z,97604.16
2022-11-03T21:19:41.679Z,97612.78
2022-11-03T21:22:30.924Z,97603.16
2022-11-03T21:25:00.382Z,97607.91
2022-11-03T21:27:27.299Z,97604.84
2022-11-03T21:29:59.274Z,97613.69
2022-11-03T21:32:26.548Z,97603.50
2022-11-03T21:34:53.619Z,97605.06
2022-11-03T21:37:20.541Z,97610.06
2022-11-03T21:39:47.586Z,97625.13
2022-11-03T21:42:34.214Z,97626.16
2022-11-03T21:45:01.228Z,97628.31
2022-11-03T21:47:28.603Z,97639.09
2022-11-03T21:49:55.444Z,97647.47
2022-11-03T21:52:31.501Z,97645.75
2022-11-03T21:55:04.188Z,97647.25
2022-11-03T21:57:31.936Z,97651.78
2022-11-03T21:59:58.933Z,97664.47
2022-11-03T22:02:29.680Z,97678.59
2022-11-03T22:04:56.972Z,97692.53
2022-11-03T22:07:24.230Z,97698.66
2022-11-03T22:09:51.068Z,97707.78
2022-11-03T22:12:18.346Z,97701.56
2022-11-03T22:15:04.013Z,97708.59
2022-11-03T22:17:30.873Z,97703.94
2022-11-03T22:20:15.976Z,97703.03
2022-11-03T22:23:01.248Z,97707.22
2022-11-03T22:25:46.460Z,97720.00
2022-11-03T22:28:14.781Z,97726.09
2022-11-03T22:31:00.415Z,97730.91
2022-11-03T22:33:27.271Z,97752.66
2022-11-03T22:36:21.473Z,97761.00
2022-11-03T22:39:07.538Z,97773.28
2022-11-03T22:41:53.911Z,97768.50
2022-11-03T22:44:39.044Z,97775.25
2022-11-03T22:47:08.315Z,97782.63
2022-11-03T22:49:35.807Z,97800.06
2022-11-03T22:52:04.133Z,97784.06
2022-11-03T22:54:30.901Z,97786.13
2022-11-03T22:56:57.770Z,97767.94
2022-11-03T22:59:24.564Z,97769.84
2022-11-03T23:01:51.510Z,97763.28
2022-11-03T23:04:18.477Z,97763.28
2022-11-03T23:06:45.320Z,97774.59
2022-11-03T23:09:12.243Z,97787.72
2022-11-03T23:11:45.247Z,97803.56
2022-11-03T23:14:12.155Z,97828.81
2022-11-03T23:16:44.799Z,97835.03
2022-11-03T23:19:33.905Z,97825.28
2022-11-03T23:22:01.664Z,97789.31
2022-11-03T23:24:47.405Z,97772.69
2022-11-03T23:27:14.383Z,97780.50
2022-11-03T23:29:41.238Z,97772.47
2022-11-03T23:32:08.410Z,97781.91
2022-11-03T23:34:35.558Z,97780.50
2022-11-03T23:37:03.379Z,97786.28
2022-11-03T23:39:30.240Z,97781.63
2022-11-03T23:41:57.052Z,97777.78
2022-11-03T23:44:23.922Z,97777.00
2022-11-03T23:47:09.184Z,97766.25
2022-11-03T23:49:35.960Z,97780.63
2022-11-03T23:52:02.862Z,97779.97
2022-11-03T23:54:30.027Z,97779.66
2022-11-03T23:57:15.243Z,97776.94
2022-11-03T23:59:42.256Z,97777.06
